ARG1774 SAEZ-SARI
Flight info
| Callsign | ARG1774 |
|---|---|
| Flight time | N/A |
| Altitude | 39000 |
| Route | LANDA3A LANDA UN785 GEMSU UT667 DOKBA DOKBA3M |
| Aircraft | A332/H-SDE3GHIJ2J3J5M1RVWXY/LB2D1 |
Departure
| Time | N/A |
|---|---|
| Airport | Ezeiza International Airport - Ministro Pistarini (SAEZ) |
Arrival
| Time | 2026-05-05 17:25 |
|---|---|
| Airport | Cataratas Del Iguazú International Airport (SARI) |
| Time | Latitude | Longitude | Altitude | Speed | Heading |
|---|---|---|---|---|---|
| 2026-05-05 16:09 | -34.48904 | -58.54948 | 23983 ft | 427 kts | 352° |
| 2026-05-05 16:09 | -34.45921 | -58.55073 | 24394 ft | 430 kts | 352° |
| 2026-05-05 16:09 | -34.42917 | -58.55200 | 24801 ft | 433 kts | 351° |
| 2026-05-05 16:10 | -34.39891 | -58.55325 | 25232 ft | 436 kts | 351° |
| 2026-05-05 16:10 | -34.36845 | -58.55453 | 25656 ft | 439 kts | 351° |
| 2026-05-05 16:10 | -34.33785 | -58.55581 | 26055 ft | 441 kts | 351° |
| 2026-05-05 16:10 | -34.30702 | -58.55710 | 26437 ft | 444 kts | 351° |
| 2026-05-05 16:11 | -34.27646 | -58.55837 | 26865 ft | 446 kts | 351° |
| 2026-05-05 16:11 | -34.18268 | -58.56229 | 28010 ft | 454 kts | 351° |
| 2026-05-05 16:12 | -34.15096 | -58.56362 | 28386 ft | 456 kts | 351° |
| 2026-05-05 16:12 | -34.08717 | -58.56653 | 29079 ft | 461 kts | 350° |
| 2026-05-05 16:13 | -33.99006 | -58.57129 | 30105 ft | 469 kts | 350° |
| 2026-05-05 16:13 | -33.95730 | -58.57289 | 30390 ft | 471 kts | 350° |
| 2026-05-05 16:13 | -33.92448 | -58.57451 | 30683 ft | 474 kts | 350° |
| 2026-05-05 16:14 | -33.85879 | -58.57754 | 31361 ft | 475 kts | 350° |
| 2026-05-05 16:14 | -33.79277 | -58.58036 | 32146 ft | 473 kts | 350° |
| 2026-05-05 16:15 | -33.72707 | -58.58316 | 32972 ft | 471 kts | 349° |
| 2026-05-05 16:15 | -33.66176 | -58.58597 | 33765 ft | 469 kts | 349° |
| 2026-05-05 16:16 | -33.59650 | -58.58880 | 34447 ft | 467 kts | 349° |
| 2026-05-05 16:16 | -33.53160 | -58.59164 | 35001 ft | 467 kts | 349° |
| 2026-05-05 16:17 | -33.46697 | -58.59447 | 35544 ft | 467 kts | 349° |
| 2026-05-05 16:17 | -33.43446 | -58.59588 | 35820 ft | 467 kts | 349° |
| 2026-05-05 16:18 | -33.36945 | -58.59868 | 36364 ft | 467 kts | 348° |
| 2026-05-05 16:18 | -33.33693 | -58.60008 | 36620 ft | 467 kts | 348° |
| 2026-05-05 16:18 | -33.27184 | -58.60289 | 37161 ft | 468 kts | 348° |
| 2026-05-05 16:19 | -33.23924 | -58.60429 | 37429 ft | 468 kts | 348° |
| 2026-05-05 16:19 | -33.20665 | -58.60568 | 37680 ft | 468 kts | 348° |
| 2026-05-05 16:19 | -33.14156 | -58.60846 | 38121 ft | 468 kts | 348° |
| 2026-05-05 16:20 | -33.07644 | -58.61127 | 38600 ft | 468 kts | 347° |
| 2026-05-05 16:20 | -33.01110 | -58.61015 | 38975 ft | 484 kts | 358° |
| 2026-05-05 16:21 | -32.94439 | -58.59142 | 38987 ft | 497 kts | 6° |
| 2026-05-05 16:22 | -32.84500 | -58.55473 | 38988 ft | 499 kts | 8° |
| 2026-05-05 16:23 | -32.72360 | -58.50967 | 38973 ft | 498 kts | 7° |
| 2026-05-05 16:23 | -32.62405 | -58.47349 | 38972 ft | 499 kts | 7° |
| 2026-05-05 16:24 | -32.55747 | -58.44938 | 38977 ft | 500 kts | 7° |
| 2026-05-05 16:25 | -32.45787 | -58.41330 | 38957 ft | 501 kts | 7° |
| 2026-05-05 16:25 | -32.35797 | -58.37721 | 38980 ft | 502 kts | 7° |
| 2026-05-05 16:26 | -32.22236 | -58.32844 | 38977 ft | 513 kts | 7° |
| 2026-05-05 16:27 | -32.15410 | -58.30377 | 38981 ft | 514 kts | 8° |
| 2026-05-05 16:27 | -32.11991 | -58.29141 | 39231 ft | 512 kts | 8° |
| 2026-05-05 16:27 | -32.08607 | -58.27913 | 39805 ft | 503 kts | 8° |
| 2026-05-05 16:28 | -32.05285 | -58.26700 | 40247 ft | 497 kts | 7° |
| 2026-05-05 16:28 | -32.01987 | -58.25516 | 40489 ft | 495 kts | 7° |
| 2026-05-05 16:28 | -31.98683 | -58.24344 | 40654 ft | 495 kts | 7° |
| 2026-05-05 16:28 | -31.95381 | -58.23179 | 40844 ft | 495 kts | 7° |
| 2026-05-05 16:29 | -31.92082 | -58.22011 | 40953 ft | 496 kts | 7° |
| 2026-05-05 16:29 | -31.88764 | -58.20834 | 40976 ft | 498 kts | 7° |
| 2026-05-05 16:29 | -31.82167 | -58.18482 | 40977 ft | 498 kts | 7° |
| 2026-05-05 16:30 | -31.75524 | -58.16120 | 40980 ft | 498 kts | 7° |
| 2026-05-05 16:30 | -31.68895 | -58.13738 | 40985 ft | 499 kts | 7° |
| 2026-05-05 16:31 | -31.62242 | -58.11394 | 40989 ft | 502 kts | 7° |
| 2026-05-05 16:31 | -31.55577 | -58.09027 | 40989 ft | 498 kts | 7° |
| 2026-05-05 16:32 | -31.48925 | -58.06674 | 40993 ft | 500 kts | 7° |
| 2026-05-05 16:32 | -31.42269 | -58.04319 | 40995 ft | 506 kts | 7° |
| 2026-05-05 16:33 | -31.35452 | -58.01915 | 40994 ft | 514 kts | 7° |
| 2026-05-05 16:33 | -31.28591 | -57.99491 | 40993 ft | 514 kts | 7° |
| 2026-05-05 16:34 | -31.21742 | -57.97071 | 40992 ft | 514 kts | 7° |
| 2026-05-05 16:34 | -31.14935 | -57.94675 | 40973 ft | 514 kts | 7° |
| 2026-05-05 16:35 | -31.08086 | -57.92271 | 40979 ft | 514 kts | 7° |
| 2026-05-05 16:35 | -31.01204 | -57.89861 | 40981 ft | 516 kts | 7° |
| 2026-05-05 16:36 | -30.94316 | -57.87450 | 40977 ft | 517 kts | 7° |
| 2026-05-05 16:36 | -30.87424 | -57.85039 | 40972 ft | 517 kts | 7° |
| 2026-05-05 16:37 | -30.80524 | -57.82632 | 40976 ft | 518 kts | 7° |
| 2026-05-05 16:37 | -30.73605 | -57.80221 | 40983 ft | 519 kts | 7° |
| 2026-05-05 16:38 | -30.66732 | -57.77825 | 40983 ft | 519 kts | 7° |
| 2026-05-05 16:38 | -30.59819 | -57.75403 | 40983 ft | 519 kts | 7° |
| 2026-05-05 16:39 | -30.52873 | -57.72973 | 40982 ft | 522 kts | 7° |
| 2026-05-05 16:39 | -30.45901 | -57.70535 | 40987 ft | 523 kts | 7° |
| 2026-05-05 16:40 | -30.38932 | -57.68102 | 40988 ft | 523 kts | 7° |
| 2026-05-05 16:40 | -30.31967 | -57.65676 | 40984 ft | 523 kts | 7° |
| 2026-05-05 16:41 | -30.25142 | -57.62422 | 40987 ft | 544 kts | 23° |
| 2026-05-05 16:41 | -30.18726 | -57.57660 | 40990 ft | 550 kts | 27° |
| 2026-05-05 16:42 | -30.12805 | -57.52911 | 40989 ft | 551 kts | 27° |
| 2026-05-05 16:42 | -30.06525 | -57.47839 | 40965 ft | 551 kts | 27° |
| 2026-05-05 16:43 | -30.00215 | -57.42799 | 40997 ft | 552 kts | 27° |
| 2026-05-05 16:43 | -29.93872 | -57.37771 | 40992 ft | 553 kts | 27° |
| 2026-05-05 16:44 | -29.87513 | -57.32745 | 40999 ft | 553 kts | 27° |
| 2026-05-05 16:44 | -29.81205 | -57.27766 | 40998 ft | 553 kts | 27° |
| 2026-05-05 16:45 | -29.74816 | -57.22731 | 40986 ft | 553 kts | 27° |
| 2026-05-05 16:45 | -29.68496 | -57.17759 | 41021 ft | 554 kts | 27° |
| 2026-05-05 16:46 | -29.62113 | -57.12742 | 41021 ft | 555 kts | 27° |
| 2026-05-05 16:46 | -29.55738 | -57.07740 | 41016 ft | 555 kts | 27° |
| 2026-05-05 16:47 | -29.49361 | -57.02743 | 41004 ft | 555 kts | 27° |
| 2026-05-05 16:47 | -29.43011 | -56.97776 | 41005 ft | 555 kts | 27° |
| 2026-05-05 16:48 | -29.36621 | -56.92785 | 41004 ft | 555 kts | 27° |
| 2026-05-05 16:48 | -29.30232 | -56.87804 | 41003 ft | 555 kts | 27° |
| 2026-05-05 16:49 | -29.23844 | -56.82830 | 41004 ft | 555 kts | 27° |
| 2026-05-05 16:49 | -29.17450 | -56.77859 | 41004 ft | 555 kts | 27° |
| 2026-05-05 16:50 | -29.11056 | -56.72897 | 41013 ft | 556 kts | 27° |
| 2026-05-05 16:50 | -29.04665 | -56.67945 | 41013 ft | 557 kts | 27° |
| 2026-05-05 16:51 | -28.98246 | -56.62977 | 41001 ft | 557 kts | 27° |
| 2026-05-05 16:51 | -28.91828 | -56.58018 | 41008 ft | 557 kts | 27° |
| 2026-05-05 16:52 | -28.85444 | -56.53093 | 41015 ft | 557 kts | 27° |
| 2026-05-05 16:52 | -28.79021 | -56.48145 | 41017 ft | 558 kts | 27° |
| 2026-05-05 16:53 | -28.72576 | -56.43189 | 41015 ft | 559 kts | 27° |
| 2026-05-05 16:53 | -28.66128 | -56.38237 | 41018 ft | 559 kts | 27° |
| 2026-05-05 16:54 | -28.59664 | -56.33280 | 41023 ft | 559 kts | 27° |
| 2026-05-05 16:54 | -28.53206 | -56.28335 | 41021 ft | 559 kts | 27° |
| 2026-05-05 16:55 | -28.46791 | -56.23430 | 41019 ft | 560 kts | 27° |
| 2026-05-05 16:55 | -28.40307 | -56.18481 | 41021 ft | 560 kts | 27° |
| 2026-05-05 16:56 | -28.33835 | -56.13547 | 41021 ft | 560 kts | 27° |
| 2026-05-05 16:56 | -28.27356 | -56.08616 | 41021 ft | 560 kts | 27° |
| 2026-05-05 16:57 | -28.20872 | -56.03688 | 41021 ft | 560 kts | 27° |
| 2026-05-05 16:57 | -28.14385 | -55.98766 | 41026 ft | 561 kts | 27° |
| 2026-05-05 16:58 | -28.07890 | -55.93844 | 41024 ft | 562 kts | 27° |
| 2026-05-05 16:58 | -28.01432 | -55.88957 | 41026 ft | 562 kts | 27° |
| 2026-05-05 16:59 | -27.94931 | -55.84047 | 41028 ft | 561 kts | 27° |
| 2026-05-05 16:59 | -27.88424 | -55.79138 | 41012 ft | 561 kts | 27° |
| 2026-05-05 17:00 | -27.81922 | -55.74240 | 41034 ft | 562 kts | 28° |
| 2026-05-05 17:00 | -27.75439 | -55.69365 | 41034 ft | 563 kts | 28° |
| 2026-05-05 17:01 | -27.68917 | -55.64467 | 41033 ft | 563 kts | 28° |
| 2026-05-05 17:01 | -27.62400 | -55.59580 | 41035 ft | 563 kts | 27° |
| 2026-05-05 17:02 | -27.55870 | -55.54691 | 41028 ft | 563 kts | 28° |
| 2026-05-05 17:02 | -27.49339 | -55.49807 | 41042 ft | 563 kts | 28° |
| 2026-05-05 17:03 | -27.42847 | -55.44958 | 41043 ft | 563 kts | 28° |
| 2026-05-05 17:03 | -27.36314 | -55.40086 | 41041 ft | 563 kts | 28° |
| 2026-05-05 17:04 | -27.33068 | -55.37665 | 40820 ft | 556 kts | 28° |
| 2026-05-05 17:04 | -27.29858 | -55.35272 | 40587 ft | 551 kts | 28° |
| 2026-05-05 17:04 | -27.26670 | -55.32902 | 40327 ft | 549 kts | 28° |
| 2026-05-05 17:04 | -27.23481 | -55.30532 | 39945 ft | 548 kts | 28° |
| 2026-05-05 17:05 | -27.20295 | -55.28165 | 39342 ft | 552 kts | 28° |
| 2026-05-05 17:05 | -27.17072 | -55.25776 | 38691 ft | 556 kts | 28° |
| 2026-05-05 17:05 | -27.13834 | -55.23376 | 37958 ft | 558 kts | 28° |
| 2026-05-05 17:05 | -27.10587 | -55.20969 | 37291 ft | 558 kts | 28° |
| 2026-05-05 17:06 | -27.07360 | -55.18579 | 36636 ft | 556 kts | 29° |
| 2026-05-05 17:06 | -27.04125 | -55.16184 | 35964 ft | 555 kts | 29° |
| 2026-05-05 17:06 | -27.00905 | -55.13799 | 35324 ft | 553 kts | 29° |
| 2026-05-05 17:06 | -26.97718 | -55.11440 | 34922 ft | 545 kts | 29° |
| 2026-05-05 17:07 | -26.94610 | -55.09142 | 34424 ft | 539 kts | 30° |
| 2026-05-05 17:07 | -26.91491 | -55.06839 | 33838 ft | 535 kts | 30° |
| 2026-05-05 17:07 | -26.88389 | -55.04550 | 33124 ft | 532 kts | 30° |
| 2026-05-05 17:07 | -26.85298 | -55.02271 | 32310 ft | 531 kts | 30° |
| 2026-05-05 17:08 | -26.82218 | -55.00003 | 31505 ft | 530 kts | 30° |
| 2026-05-05 17:08 | -26.79138 | -54.97736 | 30675 ft | 529 kts | 30° |
| 2026-05-05 17:08 | -26.76065 | -54.95475 | 29800 ft | 528 kts | 30° |
| 2026-05-05 17:08 | -26.72999 | -54.93222 | 28887 ft | 526 kts | 30° |
| 2026-05-05 17:09 | -26.69955 | -54.90984 | 28113 ft | 521 kts | 30° |
| 2026-05-05 17:09 | -26.66949 | -54.88776 | 27426 ft | 514 kts | 30° |
| 2026-05-05 17:09 | -26.64974 | -54.87324 | 26957 ft | 510 kts | 30° |
| 2026-05-05 17:09 | -26.62028 | -54.85162 | 26297 ft | 503 kts | 30° |
| 2026-05-05 17:10 | -26.59108 | -54.83059 | 25601 ft | 496 kts | 27° |
| 2026-05-05 17:10 | -26.55991 | -54.81552 | 24922 ft | 483 kts | 12° |
| 2026-05-05 17:10 | -26.52717 | -54.80923 | 24227 ft | 473 kts | 2° |
| 2026-05-05 17:10 | -26.49469 | -54.80605 | 23525 ft | 467 kts | 1° |
| 2026-05-05 17:11 | -26.46258 | -54.80317 | 22586 ft | 456 kts | 1° |
| 2026-05-05 17:11 | -26.43130 | -54.80022 | 21087 ft | 445 kts | 1° |
| 2026-05-05 17:11 | -26.40077 | -54.79721 | 19668 ft | 435 kts | 2° |
| 2026-05-05 17:11 | -26.37088 | -54.79419 | 18297 ft | 427 kts | 2° |
| 2026-05-05 17:12 | -26.34167 | -54.79118 | 16843 ft | 415 kts | 2° |
| 2026-05-05 17:12 | -26.31360 | -54.78825 | 15840 ft | 398 kts | 2° |
| 2026-05-05 17:12 | -26.28690 | -54.78542 | 15205 ft | 374 kts | 3° |
| 2026-05-05 17:12 | -26.26168 | -54.78276 | 14581 ft | 354 kts | 3° |
| 2026-05-05 17:13 | -26.23756 | -54.78024 | 13973 ft | 346 kts | 3° |
| 2026-05-05 17:13 | -26.21334 | -54.77776 | 13320 ft | 350 kts | 3° |
| 2026-05-05 17:13 | -26.18901 | -54.77581 | 12644 ft | 351 kts | 2° |
| 2026-05-05 17:13 | -26.16471 | -54.77417 | 12012 ft | 349 kts | 2° |
| 2026-05-05 17:14 | -26.14050 | -54.77259 | 11394 ft | 348 kts | 2° |
| 2026-05-05 17:14 | -26.11641 | -54.77102 | 10856 ft | 343 kts | 2° |
| 2026-05-05 17:14 | -26.09324 | -54.76947 | 10754 ft | 324 kts | 2° |
| 2026-05-05 17:14 | -26.07130 | -54.76801 | 10655 ft | 307 kts | 2° |
| 2026-05-05 17:15 | -26.05049 | -54.76660 | 10531 ft | 293 kts | 2° |
| 2026-05-05 17:15 | -26.03055 | -54.76528 | 10404 ft | 281 kts | 2° |
| 2026-05-05 17:15 | -26.01160 | -54.76403 | 10280 ft | 271 kts | 2° |
| 2026-05-05 17:15 | -25.99291 | -54.76282 | 9965 ft | 270 kts | 2° |
| 2026-05-05 17:16 | -25.97403 | -54.76158 | 9516 ft | 273 kts | 2° |
| 2026-05-05 17:16 | -25.95506 | -54.76032 | 9115 ft | 272 kts | 1° |
| 2026-05-05 17:16 | -25.93626 | -54.75907 | 8732 ft | 270 kts | 1° |
| 2026-05-05 17:16 | -25.91756 | -54.75783 | 8330 ft | 268 kts | 1° |
| 2026-05-05 17:17 | -25.89898 | -54.75660 | 7945 ft | 266 kts | 1° |
| 2026-05-05 17:17 | -25.88083 | -54.75540 | 7566 ft | 263 kts | 1° |
| 2026-05-05 17:17 | -25.86254 | -54.75419 | 7198 ft | 261 kts | 1° |
| 2026-05-05 17:17 | -25.84435 | -54.75297 | 6817 ft | 262 kts | 1° |
| 2026-05-05 17:18 | -25.82624 | -54.75177 | 6427 ft | 261 kts | 1° |
| 2026-05-05 17:18 | -25.80823 | -54.75065 | 6055 ft | 258 kts | 1° |
| 2026-05-05 17:18 | -25.79038 | -54.74950 | 5664 ft | 256 kts | 1° |
| 2026-05-05 17:18 | -25.77263 | -54.74833 | 5285 ft | 254 kts | 1° |
| 2026-05-05 17:19 | -25.75518 | -54.74717 | 5113 ft | 246 kts | 1° |
| 2026-05-05 17:19 | -25.73854 | -54.74609 | 5049 ft | 233 kts | 1° |
| 2026-05-05 17:19 | -25.72289 | -54.74506 | 4959 ft | 224 kts | 1° |
| 2026-05-05 17:19 | -25.70763 | -54.74335 | 4840 ft | 217 kts | 10° |
| 2026-05-05 17:20 | -25.69424 | -54.73607 | 4729 ft | 215 kts | 38° |
| 2026-05-05 17:20 | -25.68713 | -54.72555 | 4689 ft | 214 kts | 56° |
| 2026-05-05 17:20 | -25.68097 | -54.71073 | 4630 ft | 205 kts | 62° |
| 2026-05-05 17:20 | -25.67584 | -54.69657 | 4424 ft | 194 kts | 62° |
| 2026-05-05 17:21 | -25.67080 | -54.68278 | 3965 ft | 192 kts | 62° |
| 2026-05-05 17:21 | -25.66587 | -54.66931 | 3665 ft | 185 kts | 63° |
| 2026-05-05 17:21 | -25.66333 | -54.65555 | 3432 ft | 184 kts | 86° |
| 2026-05-05 17:22 | -25.67159 | -54.62889 | 3001 ft | 192 kts | 110° |
| 2026-05-05 17:22 | -25.67736 | -54.61551 | 3022 ft | 195 kts | 111° |
| 2026-05-05 17:22 | -25.68317 | -54.60210 | 2999 ft | 183 kts | 111° |
| 2026-05-05 17:22 | -25.68830 | -54.59031 | 2879 ft | 159 kts | 109° |
| 2026-05-05 17:23 | -25.69288 | -54.57960 | 2694 ft | 150 kts | 109° |
| 2026-05-05 17:23 | -25.69725 | -54.56928 | 2486 ft | 147 kts | 109° |
| 2026-05-05 17:23 | -25.70152 | -54.55914 | 2277 ft | 144 kts | 109° |
| 2026-05-05 17:23 | -25.70577 | -54.54898 | 2081 ft | 146 kts | 110° |
| 2026-05-05 17:24 | -25.71004 | -54.53871 | 1913 ft | 145 kts | 110° |
| 2026-05-05 17:24 | -25.71425 | -54.52886 | 1764 ft | 143 kts | 110° |
| 2026-05-05 17:24 | -25.71836 | -54.51916 | 1564 ft | 136 kts | 110° |
| 2026-05-05 17:24 | -25.72225 | -54.50966 | 1355 ft | 134 kts | 110° |
| 2026-05-05 17:25 | -25.72605 | -54.50012 | 1214 ft | 136 kts | 113° |
| 2026-05-05 17:25 | -25.72875 | -54.49375 | 1079 ft | 134 kts | 112° |
| 2026-05-05 17:25 | -25.73363 | -54.48209 | 934 ft | 98 kts | 116° |
| 2026-05-05 17:25 | -25.73527 | -54.47828 | 932 ft | 12 kts | 115° |
| 2026-05-05 17:26 | -25.73547 | -54.47780 | 933 ft | 10 kts | 115° |
| 2026-05-05 17:26 | -25.73580 | -54.47700 | 931 ft | 13 kts | 115° |